createdAt,value
2022-11-24T00:00:33.863Z,12.70
2022-11-24T00:05:38.679Z,12.47
2022-11-24T00:10:40.556Z,12.58
2022-11-24T00:15:42.440Z,12.63
2022-11-24T00:20:52.203Z,12.62
2022-11-24T00:25:53.938Z,12.72
2022-11-24T00:30:56.622Z,12.74
2022-11-24T00:36:00.271Z,12.61
2022-11-24T00:41:02.181Z,12.39
2022-11-24T00:46:04.619Z,12.41
2022-11-24T00:51:09.969Z,12.53
2022-11-24T00:56:12.834Z,12.60
2022-11-24T01:01:17.936Z,12.62
2022-11-24T01:06:22.540Z,12.65
2022-11-24T01:12:04.317Z,12.71
2022-11-24T01:17:06.534Z,12.73
2022-11-24T01:22:08.298Z,12.75
2022-11-24T01:27:10.195Z,12.74
2022-11-24T01:32:11.973Z,12.72
2022-11-24T01:37:13.742Z,12.75
2022-11-24T01:42:15.729Z,12.67
2022-11-24T01:47:36.579Z,12.57
2022-11-24T01:52:44.485Z,12.26
2022-11-24T01:57:49.833Z,12.09
2022-11-24T02:02:53.162Z,12.11
2022-11-24T02:07:59.945Z,12.25
2022-11-24T02:13:02.437Z,12.27
2022-11-24T02:18:04.523Z,12.34
2022-11-24T02:23:12.848Z,12.38
2022-11-24T02:28:18.806Z,12.27
2022-11-24T02:33:22.807Z,12.27
2022-11-24T02:38:33.040Z,12.39
2022-11-24T02:43:43.410Z,12.45
2022-11-24T02:48:45.189Z,12.52
2022-11-24T02:53:47.069Z,12.53
2022-11-24T02:58:48.950Z,12.59
2022-11-24T03:03:50.765Z,12.68
2022-11-24T03:08:52.603Z,12.68
2022-11-24T03:13:54.351Z,12.64
2022-11-24T03:18:56.280Z,12.61
2022-11-24T03:23:58.459Z,12.58
2022-11-24T03:29:00.335Z,12.59
2022-11-24T03:34:02.206Z,12.56
2022-11-24T03:39:04.332Z,12.54
2022-11-24T03:44:06.115Z,12.53
2022-11-24T03:49:07.950Z,12.51
2022-11-24T03:54:09.828Z,12.60
2022-11-24T03:59:11.607Z,12.62
2022-11-24T04:04:14.004Z,12.60
2022-11-24T04:09:15.805Z,12.55
2022-11-24T04:14:18.581Z,12.54
2022-11-24T04:19:20.455Z,12.52
2022-11-24T04:24:22.336Z,12.49
2022-11-24T04:29:24.155Z,12.50
2022-11-24T04:34:25.993Z,12.54
2022-11-24T04:39:28.898Z,12.59
2022-11-24T04:44:31.145Z,12.59
2022-11-24T04:49:33.064Z,12.61
2022-11-24T04:54:35.106Z,12.69
2022-11-24T04:59:37.234Z,12.68
2022-11-24T05:04:39.633Z,12.65
2022-11-24T05:10:00.042Z,12.55
2022-11-24T05:15:04.179Z,12.46
2022-11-24T05:20:07.291Z,12.48
2022-11-24T05:25:09.367Z,12.44
2022-11-24T05:30:12.033Z,12.33
2022-11-24T05:35:14.558Z,12.35
2022-11-24T05:40:17.052Z,12.39
2022-11-24T05:45:20.983Z,12.40
2022-11-24T05:50:23.270Z,12.36
2022-11-24T05:55:25.046Z,12.37
2022-11-24T06:00:27.728Z,12.36
2022-11-24T06:05:30.035Z,12.34
2022-11-24T06:10:31.805Z,12.25
2022-11-24T06:15:34.854Z,12.36
2022-11-24T06:20:36.587Z,12.31
2022-11-24T06:25:38.378Z,12.34
2022-11-24T06:30:40.045Z,12.28
2022-11-24T06:35:41.800Z,12.30
2022-11-24T06:40:43.575Z,12.36
2022-11-24T06:45:51.032Z,12.60
2022-11-24T06:50:53.279Z,12.57
2022-11-24T06:55:59.022Z,12.65
2022-11-24T07:01:00.857Z,12.66
2022-11-24T07:06:02.676Z,12.53
2022-11-24T07:11:06.274Z,12.50
2022-11-24T07:16:25.245Z,12.52
2022-11-24T07:21:28.271Z,12.58
2022-11-24T07:26:30.090Z,12.56
2022-11-24T07:31:32.175Z,12.51
2022-11-24T07:36:33.991Z,12.58
2022-11-24T07:41:35.709Z,12.58
2022-11-24T07:46:37.469Z,12.58
2022-11-24T07:51:39.180Z,12.51
2022-11-24T07:56:41.379Z,12.49
2022-11-24T08:01:43.188Z,12.49
2022-11-24T08:06:47.538Z,12.51
2022-11-24T08:11:49.509Z,12.41
2022-11-24T08:16:51.361Z,12.35
2022-11-24T08:21:53.203Z,12.36
2022-11-24T08:26:55.089Z,12.42
2022-11-24T08:31:57.874Z,12.38
2022-11-24T08:36:59.689Z,12.47
2022-11-24T08:42:01.527Z,12.51
2022-11-24T08:47:03.289Z,12.78
2022-11-24T08:52:05.293Z,12.76
2022-11-24T08:57:07.227Z,12.78
2022-11-24T09:02:14.768Z,12.84
2022-11-24T09:07:16.655Z,12.81
2022-11-24T09:12:18.368Z,12.84
2022-11-24T09:17:20.029Z,12.83
2022-11-24T09:22:21.728Z,12.95
2022-11-24T09:27:23.677Z,13.08
2022-11-24T09:32:25.915Z,13.08
2022-11-24T09:37:32.460Z,13.03
2022-11-24T09:42:53.780Z,13.09
2022-11-24T09:48:08.446Z,13.11
2022-11-24T09:53:31.587Z,13.04
2022-11-24T09:58:51.760Z,12.90
2022-11-24T10:03:54.197Z,12.76
2022-11-24T10:09:07.986Z,12.75
2022-11-24T10:14:47.405Z,12.66
2022-11-24T10:20:06.177Z,12.59
2022-11-24T10:26:03.626Z,12.68
2022-11-24T10:31:24.081Z,12.79
2022-11-24T10:37:01.406Z,12.71
2022-11-24T10:42:15.972Z,12.64
2022-11-24T10:47:22.985Z,12.71
2022-11-24T10:52:25.295Z,12.80
2022-11-24T10:57:39.161Z,12.81
2022-11-24T11:02:41.055Z,12.81
2022-11-24T11:07:43.014Z,12.76
2022-11-24T11:12:45.847Z,12.73
2022-11-24T11:17:52.257Z,12.73
2022-11-24T11:22:56.313Z,12.78
2022-11-24T11:28:19.915Z,12.87
2022-11-24T11:38:49.047Z,13.08
2022-11-24T11:44:01.423Z,13.12
2022-11-24T11:49:03.574Z,13.18
2022-11-24T11:54:08.197Z,13.24
2022-11-24T11:59:22.365Z,13.15
2022-11-24T12:04:32.594Z,13.14
2022-11-24T12:09:56.336Z,13.12
2022-11-24T12:15:23.506Z,13.08
2022-11-24T12:20:44.003Z,12.99
2022-11-24T12:25:47.572Z,13.13
2022-11-24T12:31:12.493Z,13.20
2022-11-24T12:36:31.150Z,13.34
2022-11-24T12:41:47.417Z,13.35
2022-11-24T12:46:59.270Z,13.34
2022-11-24T12:52:24.720Z,13.34
2022-11-24T12:57:33.273Z,13.39
2022-11-24T13:03:00.639Z,13.43
2022-11-24T13:08:04.427Z,13.39
2022-11-24T13:13:08.499Z,13.18
2022-11-24T13:18:42.139Z,13.14
2022-11-24T13:24:06.935Z,13.18
2022-11-24T13:29:27.326Z,13.19
2022-11-24T13:34:42.916Z,13.09
2022-11-24T13:39:56.211Z,13.05
2022-11-24T13:44:59.234Z,13.06
2022-11-24T13:50:03.635Z,13.04
2022-11-24T13:55:11.854Z,13.09
2022-11-24T14:00:26.868Z,13.08
2022-11-24T14:05:39.032Z,13.15
2022-11-24T14:10:42.178Z,13.13
2022-11-24T14:15:44.303Z,13.14
2022-11-24T14:20:46.164Z,13.23
2022-11-24T14:25:52.465Z,13.36
2022-11-24T14:31:24.947Z,13.39
2022-11-24T14:36:26.889Z,13.35
2022-11-24T14:41:28.777Z,13.41
2022-11-24T14:46:30.601Z,13.42
2022-11-24T14:51:37.623Z,13.43
2022-11-24T14:56:40.512Z,13.38
2022-11-24T15:01:42.515Z,13.36
2022-11-24T15:06:47.764Z,13.36
2022-11-24T15:11:49.729Z,13.33
2022-11-24T15:16:51.525Z,13.28
2022-11-24T15:21:53.432Z,13.23
2022-11-24T15:27:01.587Z,13.19
2022-11-24T15:32:14.353Z,13.15
2022-11-24T15:37:16.163Z,13.16
2022-11-24T15:42:17.951Z,13.18
2022-11-24T15:47:19.697Z,13.18
2022-11-24T15:52:21.607Z,13.20
2022-11-24T15:57:23.442Z,13.18
2022-11-24T16:02:25.304Z,13.16
2022-11-24T16:07:27.516Z,13.16
2022-11-24T16:12:29.335Z,13.16
2022-11-24T16:17:31.050Z,13.08
2022-11-24T16:22:32.699Z,13.13
2022-11-24T16:27:34.484Z,13.11
2022-11-24T16:32:36.284Z,13.09
2022-11-24T16:37:38.704Z,13.18
2022-11-24T16:42:40.442Z,13.18
2022-11-24T16:47:42.992Z,13.18
2022-11-24T16:52:44.720Z,13.22
2022-11-24T16:57:47.038Z,13.21
2022-11-24T17:02:48.852Z,13.28
2022-11-24T17:07:50.719Z,13.38
2022-11-24T17:12:52.480Z,13.45
2022-11-24T17:18:22.316Z,13.54
2022-11-24T17:23:16.019Z,13.56
2022-11-24T17:28:17.759Z,13.54
2022-11-24T17:33:19.394Z,13.56
2022-11-24T17:38:21.207Z,13.57
2022-11-24T17:43:22.983Z,13.46
2022-11-24T17:48:25.320Z,13.41
2022-11-24T17:53:27.817Z,13.40
2022-11-24T17:58:29.993Z,13.38
2022-11-24T18:03:32.646Z,13.33
2022-11-24T18:08:38.552Z,13.24
2022-11-24T18:13:56.703Z,13.21
2022-11-24T18:19:08.836Z,13.17
2022-11-24T18:24:11.963Z,13.12
2022-11-24T18:29:13.883Z,13.10
2022-11-24T18:34:15.693Z,13.15
2022-11-24T18:39:18.785Z,13.15
2022-11-24T18:44:20.722Z,13.18
2022-11-24T18:49:22.606Z,13.24
2022-11-24T18:54:24.461Z,13.22
2022-11-24T18:59:26.398Z,13.19
2022-11-24T19:04:44.435Z,13.20
2022-11-24T19:09:46.685Z,13.24
2022-11-24T19:14:48.424Z,13.31
2022-11-24T19:19:51.721Z,13.22
2022-11-24T19:24:53.552Z,13.20
2022-11-24T19:29:55.331Z,13.27
2022-11-24T19:34:57.205Z,13.36
2022-11-24T19:39:59.047Z,13.40
2022-11-24T19:45:00.969Z,13.44
2022-11-24T19:50:07.393Z,13.50
2022-11-24T19:55:12.125Z,13.44
2022-11-24T20:00:14.583Z,13.40
2022-11-24T20:05:16.453Z,13.39
2022-11-24T20:10:18.298Z,13.40
2022-11-24T20:15:20.897Z,13.36
2022-11-24T20:20:22.799Z,13.39
2022-11-24T20:25:24.995Z,13.45
2022-11-24T20:30:26.709Z,13.52
2022-11-24T20:35:28.543Z,13.56
2022-11-24T20:40:30.382Z,13.48
2022-11-24T20:45:32.295Z,13.44
2022-11-24T20:50:36.058Z,13.43
2022-11-24T20:55:37.940Z,13.45
2022-11-24T21:00:39.966Z,13.42
2022-11-24T21:05:41.909Z,13.36
2022-11-24T21:10:51.462Z,13.28
2022-11-24T21:15:53.855Z,13.35
2022-11-24T21:20:59.127Z,13.25
2022-11-24T21:26:05.408Z,13.19
2022-11-24T21:31:08.919Z,13.16
2022-11-24T21:36:11.204Z,13.06
2022-11-24T21:41:14.065Z,12.96
2022-11-24T21:46:16.354Z,12.91
2022-11-24T21:51:19.194Z,12.89
2022-11-24T21:56:22.105Z,12.82
2022-11-24T22:01:25.257Z,12.83
2022-11-24T22:06:27.101Z,12.76
2022-11-24T22:11:28.894Z,12.75
2022-11-24T22:16:30.875Z,12.75
2022-11-24T22:21:33.624Z,12.70
2022-11-24T22:26:35.919Z,12.62
2022-11-24T22:31:37.887Z,12.59
2022-11-24T22:36:39.881Z,12.47
2022-11-24T22:41:41.771Z,12.38
2022-11-24T22:46:43.745Z,12.35
2022-11-24T22:51:45.505Z,12.28
2022-11-24T22:56:47.476Z,12.32
2022-11-24T23:01:49.277Z,12.52
2022-11-24T23:06:51.212Z,12.63
2022-11-24T23:11:52.979Z,12.65
2022-11-24T23:16:54.872Z,12.61
2022-11-24T23:21:56.975Z,12.47
2022-11-24T23:26:58.795Z,12.44
2022-11-24T23:32:00.754Z,12.46
2022-11-24T23:37:02.501Z,12.47
2022-11-24T23:42:04.579Z,12.48
2022-11-24T23:47:06.671Z,12.46
2022-11-24T23:52:08.605Z,12.45
2022-11-24T23:57:10.342Z,12.50
